sensor_id;sensor_type;location;lat;lon;timestamp;pressure;altitude;pressure_sealevel;temperature;humidity
13124;BME280;6627;50.920;12.050;2023-04-03T00:00:13;99217.75;;;11.60;45.43
13124;BME280;6627;50.920;12.050;2023-04-03T00:02:41;99156.31;;;10.99;46.88
13124;BME280;6627;50.920;12.050;2023-04-03T00:05:08;99066.81;;;10.48;46.92
13124;BME280;6627;50.920;12.050;2023-04-03T00:07:35;99136.66;;;10.89;46.62
13124;BME280;6627;50.920;12.050;2023-04-03T00:10:06;99072.94;;;10.34;47.64
13124;BME280;6627;50.920;12.050;2023-04-03T00:12:33;99168.97;;;11.04;46.89
13124;BME280;6627;50.920;12.050;2023-04-03T00:15:00;99182.91;;;11.16;46.31
13124;BME280;6627;50.920;12.050;2023-04-03T00:17:27;99050.84;;;10.27;47.79
13124;BME280;6627;50.920;12.050;2023-04-03T00:19:54;99096.59;;;10.48;47.58
13124;BME280;6627;50.920;12.050;2023-04-03T00:22:21;99068.47;;;10.44;47.44
13124;BME280;6627;50.920;12.050;2023-04-03T00:24:48;99139.97;;;10.85;47.22
13124;BME280;6627;50.920;12.050;2023-04-03T00:27:17;99102.13;;;10.80;46.33
13124;BME280;6627;50.920;12.050;2023-04-03T00:29:44;99186.41;;;11.35;45.45
13124;BME280;6627;50.920;12.050;2023-04-03T00:32:12;99108.25;;;10.86;45.79
13124;BME280;6627;50.920;12.050;2023-04-03T00:34:39;99048.16;;;10.27;47.27
13124;BME280;6627;50.920;12.050;2023-04-03T00:37:06;99195.94;;;11.14;46.21
13124;BME280;6627;50.920;12.050;2023-04-03T00:39:34;99278.47;;;11.83;45.07
13124;BME280;6627;50.920;12.050;2023-04-03T00:42:01;98997.34;;;10.19;46.12
13124;BME280;6627;50.920;12.050;2023-04-03T00:48:05;98968.31;;;9.82;46.85
13124;BME280;6627;50.920;12.050;2023-04-03T00:50:37;99102.72;;;10.34;47.10
13124;BME280;6627;50.920;12.050;2023-04-03T00:53:08;98983.81;;;9.76;47.36
13124;BME280;6627;50.920;12.050;2023-04-03T00:55:38;99061.84;;;10.36;46.45
13124;BME280;6627;50.920;12.050;2023-04-03T00:58:07;98976.09;;;9.89;46.52
13124;BME280;6627;50.920;12.050;2023-04-03T01:00:39;98942.13;;;9.77;46.71
13124;BME280;6627;50.920;12.050;2023-04-03T01:03:10;99047.09;;;9.99;47.60
13124;BME280;6627;50.920;12.050;2023-04-03T01:05:39;99038.19;;;10.18;47.04
13124;BME280;6627;50.920;12.050;2023-04-03T01:08:07;99079.00;;;10.26;46.74
13124;BME280;6627;50.920;12.050;2023-04-03T01:10:34;99051.19;;;9.97;47.56
13124;BME280;6627;50.920;12.050;2023-04-03T01:13:18;98875.25;;;9.21;47.15
13124;BME280;6627;50.920;12.050;2023-04-03T01:15:46;99018.38;;;10.03;46.41
13124;BME280;6627;50.920;12.050;2023-04-03T01:18:15;99010.34;;;10.17;45.71
13124;BME280;6627;50.920;12.050;2023-04-03T01:21:45;99064.09;;;10.48;45.22
13124;BME280;6627;50.920;12.050;2023-04-03T01:24:30;99062.63;;;10.37;45.36
13124;BME280;6627;50.920;12.050;2023-04-03T01:26:59;99009.34;;;9.89;46.31
13124;BME280;6627;50.920;12.050;2023-04-03T01:29:28;99057.50;;;10.11;46.14
13124;BME280;6627;50.920;12.050;2023-04-03T01:31:58;99010.72;;;9.86;46.13
13124;BME280;6627;50.920;12.050;2023-04-03T01:34:27;99095.81;;;10.23;46.36
13124;BME280;6627;50.920;12.050;2023-04-03T01:36:55;99031.22;;;9.93;46.11
13124;BME280;6627;50.920;12.050;2023-04-03T01:39:22;98959.47;;;9.28;46.96
13124;BME280;6627;50.920;12.050;2023-04-03T01:41:50;99148.56;;;10.50;46.17
13124;BME280;6627;50.920;12.050;2023-04-03T01:44:17;98997.72;;;9.89;45.60
13124;BME280;6627;50.920;12.050;2023-04-03T01:46:44;99104.09;;;10.08;46.79
13124;BME280;6627;50.920;12.050;2023-04-03T01:49:13;99104.47;;;10.25;45.88
13124;BME280;6627;50.920;12.050;2023-04-03T01:51:40;99071.38;;;10.04;46.11
13124;BME280;6627;50.920;12.050;2023-04-03T01:54:07;99047.47;;;9.93;46.02
13124;BME280;6627;50.920;12.050;2023-04-03T01:56:35;99073.88;;;10.01;46.21
13124;BME280;6627;50.920;12.050;2023-04-03T01:59:02;98994.41;;;9.49;46.85
13124;BME280;6627;50.920;12.050;2023-04-03T02:01:29;99143.00;;;10.12;46.71
13124;BME280;6627;50.920;12.050;2023-04-03T02:03:56;99134.97;;;10.55;45.28
13124;BME280;6627;50.920;12.050;2023-04-03T02:06:25;98735.78;;;8.34;46.33
13124;BME280;6627;50.920;12.050;2023-04-03T02:08:52;99093.28;;;9.84;46.59
13124;BME280;6627;50.920;12.050;2023-04-03T02:11:19;98932.81;;;8.93;47.37
13124;BME280;6627;50.920;12.050;2023-04-03T02:13:46;99079.09;;;9.68;46.97
13124;BME280;6627;50.920;12.050;2023-04-03T02:16:13;99090.22;;;9.91;46.40
13124;BME280;6627;50.920;12.050;2023-04-03T02:18:40;99043.13;;;9.44;47.05
13124;BME280;6627;50.920;12.050;2023-04-03T02:21:07;99043.53;;;9.56;46.50
13124;BME280;6627;50.920;12.050;2023-04-03T02:23:36;99130.13;;;10.04;46.38
13124;BME280;6627;50.920;12.050;2023-04-03T02:26:06;99098.75;;;10.03;46.05
13124;BME280;6627;50.920;12.050;2023-04-03T02:28:34;99031.50;;;9.43;47.07
13124;BME280;6627;50.920;12.050;2023-04-03T02:31:03;98998.78;;;9.45;46.14
13124;BME280;6627;50.920;12.050;2023-04-03T02:33:32;99025.00;;;9.68;46.05
13124;BME280;6627;50.920;12.050;2023-04-03T02:36:00;98897.28;;;8.80;46.84
13124;BME280;6627;50.920;12.050;2023-04-03T02:38:27;99006.03;;;9.20;47.19
13124;BME280;6627;50.920;12.050;2023-04-03T02:41:00;99048.72;;;9.52;46.78
13124;BME280;6627;50.920;12.050;2023-04-03T02:43:27;99079.69;;;9.65;47.31
13124;BME280;6627;50.920;12.050;2023-04-03T02:45:55;98951.31;;;9.09;46.48
13124;BME280;6627;50.920;12.050;2023-04-03T02:48:23;98956.47;;;9.06;46.94
13124;BME280;6627;50.920;12.050;2023-04-03T02:50:50;98944.78;;;8.87;47.26
13124;BME280;6627;50.920;12.050;2023-04-03T02:53:18;99015.78;;;9.16;47.36
13124;BME280;6627;50.920;12.050;2023-04-03T02:55:45;98934.63;;;8.73;47.48
13124;BME280;6627;50.920;12.050;2023-04-03T02:58:14;98900.81;;;8.52;47.72
13124;BME280;6627;50.920;12.050;2023-04-03T03:00:41;99021.19;;;9.21;47.04
13124;BME280;6627;50.920;12.050;2023-04-03T03:03:08;98946.31;;;8.93;46.93
13124;BME280;6627;50.920;12.050;2023-04-03T03:05:36;99168.28;;;10.31;45.04
13124;BME280;6627;50.920;12.050;2023-04-03T03:08:03;98947.66;;;8.95;46.63
13124;BME280;6627;50.920;12.050;2023-04-03T03:10:30;98934.28;;;8.80;46.82
13124;BME280;6627;50.920;12.050;2023-04-03T03:12:57;99116.94;;;9.68;46.69
13124;BME280;6627;50.920;12.050;2023-04-03T03:15:26;99168.59;;;10.01;46.12
13124;BME280;6627;50.920;12.050;2023-04-03T03:17:53;98950.34;;;8.66;47.36
13124;BME280;6627;50.920;12.050;2023-04-03T03:20:20;99064.31;;;9.31;46.92
13124;BME280;6627;50.920;12.050;2023-04-03T03:22:47;99103.91;;;9.75;46.14
13124;BME280;6627;50.920;12.050;2023-04-03T03:25:15;98990.88;;;8.95;46.88
13124;BME280;6627;50.920;12.050;2023-04-03T03:27:42;99075.88;;;9.08;47.66
13124;BME280;6627;50.920;12.050;2023-04-03T03:30:10;99046.06;;;9.18;46.86
13124;BME280;6627;50.920;12.050;2023-04-03T03:32:39;99052.78;;;9.21;46.86
13124;BME280;6627;50.920;12.050;2023-04-03T03:35:07;99049.81;;;9.22;46.85
13124;BME280;6627;50.920;12.050;2023-04-03T03:37:34;98997.34;;;8.99;46.47
13124;BME280;6627;50.920;12.050;2023-04-03T03:40:01;98898.22;;;8.37;47.53
13124;BME280;6627;50.920;12.050;2023-04-03T03:42:28;99024.84;;;9.01;47.14
13124;BME280;6627;50.920;12.050;2023-04-03T03:44:55;98954.03;;;8.75;46.90
13124;BME280;6627;50.920;12.050;2023-04-03T03:47:23;98949.63;;;8.55;47.39
13124;BME280;6627;50.920;12.050;2023-04-03T03:49:51;98925.72;;;8.39;47.71
13124;BME280;6627;50.920;12.050;2023-04-03T03:52:20;99145.25;;;9.52;47.25
13124;BME280;6627;50.920;12.050;2023-04-03T03:54:47;99144.09;;;9.58;46.86
13124;BME280;6627;50.920;12.050;2023-04-03T03:57:15;99120.94;;;9.47;47.22
13124;BME280;6627;50.920;12.050;2023-04-03T03:59:42;98931.09;;;8.44;47.45
13124;BME280;6627;50.920;12.050;2023-04-03T04:02:10;98919.78;;;8.37;47.66
13124;BME280;6627;50.920;12.050;2023-04-03T04:04:37;99049.47;;;9.00;47.36
13124;BME280;6627;50.920;12.050;2023-04-03T04:07:05;98984.50;;;8.47;48.48
13124;BME280;6627;50.920;12.050;2023-04-03T04:09:33;98919.47;;;8.04;48.69
13124;BME280;6627;50.920;12.050;2023-04-03T04:12:00;98833.81;;;7.46;49.57
13124;BME280;6627;50.920;12.050;2023-04-03T04:14:27;98988.34;;;8.30;48.70
13124;BME280;6627;50.920;12.050;2023-04-03T04:16:54;99055.56;;;8.76;48.07
13124;BME280;6627;50.920;12.050;2023-04-03T04:19:21;99246.66;;;9.83;47.03
13124;BME280;6627;50.920;12.050;2023-04-03T04:21:48;99111.09;;;8.93;48.24
13124;BME280;6627;50.920;12.050;2023-04-03T04:24:17;99001.31;;;8.33;48.12
13124;BME280;6627;50.920;12.050;2023-04-03T04:26:44;99130.03;;;8.88;48.80
13124;BME280;6627;50.920;12.050;2023-04-03T04:29:12;99031.50;;;8.46;48.44
13124;BME280;6627;50.920;12.050;2023-04-03T04:31:39;99011.19;;;7.99;49.68
13124;BME280;6627;50.920;12.050;2023-04-03T04:34:06;99097.69;;;8.77;48.00
13124;BME280;6627;50.920;12.050;2023-04-03T04:36:34;98879.34;;;7.43;49.36
13124;BME280;6627;50.920;12.050;2023-04-03T04:39:01;99029.50;;;8.07;49.44
13124;BME280;6627;50.920;12.050;2023-04-03T04:41:29;99097.56;;;8.53;49.11
13124;BME280;6627;50.920;12.050;2023-04-03T04:43:57;99045.00;;;8.41;48.58
13124;BME280;6627;50.920;12.050;2023-04-03T04:46:25;98843.16;;;7.04;50.23
13124;BME280;6627;50.920;12.050;2023-04-03T04:48:52;98866.59;;;7.04;50.33
13124;BME280;6627;50.920;12.050;2023-04-03T04:51:20;98960.97;;;7.53;50.30
13124;BME280;6627;50.920;12.050;2023-04-03T04:53:47;99087.13;;;8.26;49.47
13124;BME280;6627;50.920;12.050;2023-04-03T04:56:14;99024.72;;;7.94;49.56
13124;BME280;6627;50.920;12.050;2023-04-03T04:58:43;99020.41;;;7.93;49.20
13124;BME280;6627;50.920;12.050;2023-04-03T05:01:11;99052.16;;;8.01;49.43
13124;BME280;6627;50.920;12.050;2023-04-03T05:03:38;99123.25;;;8.35;49.43
13124;BME280;6627;50.920;12.050;2023-04-03T05:06:05;98976.56;;;7.67;49.28
13124;BME280;6627;50.920;12.050;2023-04-03T05:08:33;98976.13;;;7.29;51.04
13124;BME280;6627;50.920;12.050;2023-04-03T05:11:00;99221.41;;;8.70;50.12
13124;BME280;6627;50.920;12.050;2023-04-03T05:13:27;99203.88;;;8.63;49.44
13124;BME280;6627;50.920;12.050;2023-04-03T05:15:55;99215.66;;;8.87;48.19
13124;BME280;6627;50.920;12.050;2023-04-03T05:18:22;99231.56;;;8.94;48.34
13124;BME280;6627;50.920;12.050;2023-04-03T05:20:50;98991.97;;;7.46;49.51
13124;BME280;6627;50.920;12.050;2023-04-03T05:23:18;98996.09;;;7.07;51.07
13124;BME280;6627;50.920;12.050;2023-04-03T05:25:45;99070.59;;;7.73;49.99
13124;BME280;6627;50.920;12.050;2023-04-03T05:28:13;99000.41;;;7.08;51.23
13124;BME280;6627;50.920;12.050;2023-04-03T05:30:40;99133.41;;;7.74;51.77
13124;BME280;6627;50.920;12.050;2023-04-03T05:33:09;99142.31;;;7.79;51.38
13124;BME280;6627;50.920;12.050;2023-04-03T05:35:37;98970.53;;;6.95;51.08
13124;BME280;6627;50.920;12.050;2023-04-03T05:38:07;99073.09;;;7.49;51.25
13124;BME280;6627;50.920;12.050;2023-04-03T05:40:34;99097.06;;;7.51;51.34
13124;BME280;6627;50.920;12.050;2023-04-03T05:43:01;99125.88;;;7.76;50.61
13124;BME280;6627;50.920;12.050;2023-04-03T05:45:28;99042.66;;;7.33;50.74
13124;BME280;6627;50.920;12.050;2023-04-03T05:47:55;99350.94;;;9.01;49.56
13124;BME280;6627;50.920;12.050;2023-04-03T05:50:24;99091.69;;;7.41;50.69
13124;BME280;6627;50.920;12.050;2023-04-03T05:52:55;99067.69;;;7.39;50.33
13124;BME280;6627;50.920;12.050;2023-04-03T05:55:24;99271.41;;;8.27;50.53
13124;BME280;6627;50.920;12.050;2023-04-03T05:57:51;99180.06;;;7.79;50.70
13124;BME280;6627;50.920;12.050;2023-04-03T06:00:19;99166.28;;;7.86;50.11
13124;BME280;6627;50.920;12.050;2023-04-03T06:02:47;99143.91;;;7.86;49.93
13124;BME280;6627;50.920;12.050;2023-04-03T06:05:14;99078.22;;;7.46;49.97
13124;BME280;6627;50.920;12.050;2023-04-03T06:07:42;99328.84;;;8.83;49.52
13124;BME280;6627;50.920;12.050;2023-04-03T06:10:12;99144.16;;;7.94;49.28
13124;BME280;6627;50.920;12.050;2023-04-03T06:12:39;99332.59;;;8.93;48.68
13124;BME280;6627;50.920;12.050;2023-04-03T06:15:08;99297.53;;;8.67;49.30
13124;BME280;6627;50.920;12.050;2023-04-03T06:17:36;99308.34;;;8.67;49.32
13124;BME280;6627;50.920;12.050;2023-04-03T06:20:05;99192.69;;;8.15;48.89
13124;BME280;6627;50.920;12.050;2023-04-03T06:22:34;99270.63;;;8.42;49.14
13124;BME280;6627;50.920;12.050;2023-04-03T06:25:03;99218.81;;;8.14;49.17
13124;BME280;6627;50.920;12.050;2023-04-03T06:27:31;99260.09;;;8.50;48.39
13124;BME280;6627;50.920;12.050;2023-04-03T06:29:58;99182.75;;;7.90;49.20
13124;BME280;6627;50.920;12.050;2023-04-03T06:32:25;99240.13;;;8.26;49.29
13124;BME280;6627;50.920;12.050;2023-04-03T06:34:52;99134.22;;;7.74;49.15
13124;BME280;6627;50.920;12.050;2023-04-03T06:37:22;99113.22;;;7.51;48.93
13124;BME280;6627;50.920;12.050;2023-04-03T06:39:52;99327.50;;;8.76;48.52
13124;BME280;6627;50.920;12.050;2023-04-03T06:42:20;99368.00;;;9.61;46.06
13124;BME280;6627;50.920;12.050;2023-04-03T06:44:47;99309.38;;;8.92;47.19
13124;BME280;6627;50.920;12.050;2023-04-03T06:47:16;99266.47;;;8.75;47.42
13124;BME280;6627;50.920;12.050;2023-04-03T06:49:44;99116.41;;;7.94;47.50
13124;BME280;6627;50.920;12.050;2023-04-03T06:52:11;99351.38;;;9.23;47.31
13124;BME280;6627;50.920;12.050;2023-04-03T06:54:39;99260.19;;;8.95;46.57
13124;BME280;6627;50.920;12.050;2023-04-03T06:57:06;99187.19;;;8.55;46.61
13124;BME280;6627;50.920;12.050;2023-04-03T06:59:36;99129.47;;;8.31;46.22
13124;BME280;6627;50.920;12.050;2023-04-03T07:02:03;99265.09;;;8.88;47.00
13124;BME280;6627;50.920;12.050;2023-04-03T07:04:30;99172.66;;;8.31;47.07
13124;BME280;6627;50.920;12.050;2023-04-03T07:06:57;99082.72;;;7.86;47.42
13124;BME280;6627;50.920;12.050;2023-04-03T07:09:24;99195.06;;;8.37;47.57
13124;BME280;6627;50.920;12.050;2023-04-03T07:11:52;99242.13;;;8.90;46.29
13124;BME280;6627;50.920;12.050;2023-04-03T07:14:19;99117.44;;;8.03;47.04
13124;BME280;6627;50.920;12.050;2023-04-03T07:16:48;99382.16;;;9.32;46.64
13124;BME280;6627;50.920;12.050;2023-04-03T07:19:19;99171.91;;;8.15;47.42
13124;BME280;6627;50.920;12.050;2023-04-03T07:21:47;99322.28;;;9.05;46.57
13124;BME280;6627;50.920;12.050;2023-04-03T07:24:21;99288.28;;;8.99;46.29
13124;BME280;6627;50.920;12.050;2023-04-03T07:26:49;99278.03;;;8.96;46.05
13124;BME280;6627;50.920;12.050;2023-04-03T07:29:16;99484.09;;;10.02;45.68
13124;BME280;6627;50.920;12.050;2023-04-03T07:31:44;99345.41;;;9.31;45.78
13124;BME280;6627;50.920;12.050;2023-04-03T07:34:13;99307.44;;;9.02;46.03
13124;BME280;6627;50.920;12.050;2023-04-03T07:36:48;99375.84;;;9.57;44.93
13124;BME280;6627;50.920;12.050;2023-04-03T07:39:16;99200.88;;;8.74;44.97
13124;BME280;6627;50.920;12.050;2023-04-03T07:41:43;99232.72;;;8.77;45.60
13124;BME280;6627;50.920;12.050;2023-04-03T07:44:10;99369.63;;;9.57;45.51
13124;BME280;6627;50.920;12.050;2023-04-03T07:46:37;99332.69;;;9.37;45.43
13124;BME280;6627;50.920;12.050;2023-04-03T07:49:04;99374.44;;;9.70;44.69
13124;BME280;6627;50.920;12.050;2023-04-03T07:51:33;99189.50;;;8.77;44.74
13124;BME280;6627;50.920;12.050;2023-04-03T07:54:00;99220.75;;;8.94;44.99
13124;BME280;6627;50.920;12.050;2023-04-03T07:56:27;99226.13;;;9.04;44.57
13124;BME280;6627;50.920;12.050;2023-04-03T07:58:54;99371.63;;;9.85;43.97
13124;BME280;6627;50.920;12.050;2023-04-03T08:01:21;99412.06;;;10.11;43.89
13124;BME280;6627;50.920;12.050;2023-04-03T08:03:49;99486.47;;;10.58;43.11
13124;BME280;6627;50.920;12.050;2023-04-03T08:06:16;99344.72;;;9.99;43.00
13124;BME280;6627;50.920;12.050;2023-04-03T08:08:45;99346.59;;;10.04;42.96
13124;BME280;6627;50.920;12.050;2023-04-03T08:11:13;99284.31;;;9.75;43.30
13124;BME280;6627;50.920;12.050;2023-04-03T08:13:40;99357.66;;;10.07;43.43
13124;BME280;6627;50.920;12.050;2023-04-03T08:16:11;99258.16;;;9.65;43.18
13124;BME280;6627;50.920;12.050;2023-04-03T08:18:38;99118.72;;;8.86;43.88
13124;BME280;6627;50.920;12.050;2023-04-03T08:21:07;99262.53;;;9.61;43.37
13124;BME280;6627;50.920;12.050;2023-04-03T08:23:34;99264.06;;;9.72;42.85
13124;BME280;6627;50.920;12.050;2023-04-03T08:26:09;99205.84;;;9.46;42.87
13124;BME280;6627;50.920;12.050;2023-04-03T08:28:37;99230.13;;;9.51;42.65
13124;BME280;6627;50.920;12.050;2023-04-03T08:31:06;99276.41;;;9.83;41.98
13124;BME280;6627;50.920;12.050;2023-04-03T08:33:34;99245.47;;;9.95;41.16
13124;BME280;6627;50.920;12.050;2023-04-03T08:36:04;99134.25;;;9.38;41.84
13124;BME280;6627;50.920;12.050;2023-04-03T08:38:32;99145.84;;;9.44;41.90
13124;BME280;6627;50.920;12.050;2023-04-03T08:41:13;98991.00;;;8.80;41.67
13124;BME280;6627;50.920;12.050;2023-04-03T08:43:56;99186.56;;;9.57;41.91
13124;BME280;6627;50.920;12.050;2023-04-03T08:46:40;99165.97;;;9.27;42.80
13124;BME280;6627;50.920;12.050;2023-04-03T08:49:17;99328.06;;;10.21;41.85
13124;BME280;6627;50.920;12.050;2023-04-03T08:51:50;99270.06;;;9.98;41.86
13124;BME280;6627;50.920;12.050;2023-04-03T08:54:28;99170.38;;;9.81;39.98
13124;BME280;6627;50.920;12.050;2023-04-03T08:57:03;99285.03;;;10.20;40.78
13124;BME280;6627;50.920;12.050;2023-04-03T08:59:34;99204.56;;;10.01;39.93
13124;BME280;6627;50.920;12.050;2023-04-03T09:02:18;99418.16;;;11.19;38.85
13124;BME280;6627;50.920;12.050;2023-04-03T09:04:48;99418.47;;;11.18;39.14
13124;BME280;6627;50.920;12.050;2023-04-03T09:07:25;99462.09;;;11.69;38.04
13124;BME280;6627;50.920;12.050;2023-04-03T09:10:00;99058.97;;;10.27;37.23
13124;BME280;6627;50.920;12.050;2023-04-03T09:12:37;99336.66;;;11.34;37.68
13124;BME280;6627;50.920;12.050;2023-04-03T09:15:17;99585.28;;;12.97;36.48
13124;BME280;6627;50.920;12.050;2023-04-03T09:17:58;99332.88;;;11.73;36.96
13124;BME280;6627;50.920;12.050;2023-04-03T09:20:39;99715.31;;;13.70;36.53
13124;BME280;6627;50.920;12.050;2023-04-03T09:23:29;99410.72;;;12.67;35.25
13124;BME280;6627;50.920;12.050;2023-04-03T09:26:05;99324.41;;;12.45;35.07
13124;BME280;6627;50.920;12.050;2023-04-03T09:28:39;99385.56;;;12.75;35.31
13124;BME280;6627;50.920;12.050;2023-04-03T09:31:20;99216.81;;;12.30;34.26
13124;BME280;6627;50.920;12.050;2023-04-03T09:33:50;99528.06;;;13.67;34.50
13124;BME280;6627;50.920;12.050;2023-04-03T09:36:39;99589.88;;;14.35;33.45
13124;BME280;6627;50.920;12.050;2023-04-03T09:39:13;99195.69;;;12.82;32.89
13124;BME280;6627;50.920;12.050;2023-04-03T09:41:59;99338.47;;;13.35;33.20
13124;BME280;6627;50.920;12.050;2023-04-03T09:44:31;99195.38;;;12.98;32.52
13124;BME280;6627;50.920;12.050;2023-04-03T09:46:59;99248.19;;;13.19;33.48
13124;BME280;6627;50.920;12.050;2023-04-03T09:49:27;99094.50;;;12.49;33.33
13124;BME280;6627;50.920;12.050;2023-04-03T09:51:54;99225.81;;;13.36;32.51
13124;BME280;6627;50.920;12.050;2023-04-03T09:54:32;99201.06;;;13.10;32.91
13124;BME280;6627;50.920;12.050;2023-04-03T09:57:11;99000.50;;;12.12;34.15
13124;BME280;6627;50.920;12.050;2023-04-03T09:59:46;99120.00;;;12.76;33.85
13124;BME280;6627;50.920;12.050;2023-04-03T10:02:37;99132.59;;;13.08;32.64
13124;BME280;6627;50.920;12.050;2023-04-03T10:05:30;99108.59;;;12.87;32.61
13124;BME280;6627;50.920;12.050;2023-04-03T10:08:10;99325.63;;;13.99;32.25
13124;BME280;6627;50.920;12.050;2023-04-03T10:10:38;99092.56;;;13.00;32.71
13124;BME280;6627;50.920;12.050;2023-04-03T10:13:10;99301.13;;;13.99;32.43
13124;BME280;6627;50.920;12.050;2023-04-03T10:15:44;99403.31;;;14.42;32.84
13124;BME280;6627;50.920;12.050;2023-04-03T10:18:30;99182.81;;;13.38;33.34
13124;BME280;6627;50.920;12.050;2023-04-03T10:21:05;99021.13;;;12.85;32.80
13124;BME280;6627;50.920;12.050;2023-04-03T10:23:43;98877.63;;;11.70;33.89
13124;BME280;6627;50.920;12.050;2023-04-03T10:26:25;98804.81;;;11.50;33.17
13124;BME280;6627;50.920;12.050;2023-04-03T10:29:02;98985.94;;;12.08;33.90
13124;BME280;6627;50.920;12.050;2023-04-03T10:31:46;98941.94;;;11.56;35.26
13124;BME280;6627;50.920;12.050;2023-04-03T10:34:23;99005.47;;;11.82;35.00
13124;BME280;6627;50.920;12.050;2023-04-03T10:37:01;98959.41;;;11.77;34.25
13124;BME280;6627;50.920;12.050;2023-04-03T10:39:43;99049.47;;;12.07;34.43
13124;BME280;6627;50.920;12.050;2023-04-03T10:42:20;99157.56;;;12.60;34.36
13124;BME280;6627;50.920;12.050;2023-04-03T10:45:17;98846.25;;;11.14;34.60
13124;BME280;6627;50.920;12.050;2023-04-03T10:47:58;99063.84;;;12.07;34.09
13124;BME280;6627;50.920;12.050;2023-04-03T10:50:40;99097.72;;;12.37;34.18
13124;BME280;6627;50.920;12.050;2023-04-03T10:53:20;99203.34;;;12.80;33.71
13124;BME280;6627;50.920;12.050;2023-04-03T10:56:02;99223.22;;;13.31;32.59
13124;BME280;6627;50.920;12.050;2023-04-03T10:58:35;99395.84;;;13.88;33.31
13124;BME280;6627;50.920;12.050;2023-04-03T11:01:09;99182.22;;;12.77;34.20
13124;BME280;6627;50.920;12.050;2023-04-03T11:03:43;98942.94;;;11.88;33.32
13124;BME280;6627;50.920;12.050;2023-04-03T11:06:15;99239.47;;;13.08;33.78
13124;BME280;6627;50.920;12.050;2023-04-03T11:08:49;98992.97;;;12.23;32.69
13124;BME280;6627;50.920;12.050;2023-04-03T11:11:25;99078.41;;;12.53;32.92
13124;BME280;6627;50.920;12.050;2023-04-03T11:14:00;99224.03;;;13.31;32.68
13124;BME280;6627;50.920;12.050;2023-04-03T11:16:33;99225.63;;;13.32;32.54
13124;BME280;6627;50.920;12.050;2023-04-03T11:19:15;98852.41;;;11.83;32.51
13124;BME280;6627;50.920;12.050;2023-04-03T11:21:54;99258.22;;;13.60;32.20
13124;BME280;6627;50.920;12.050;2023-04-03T11:24:26;99214.03;;;13.63;31.52
13124;BME280;6627;50.920;12.050;2023-04-03T11:26:56;99108.19;;;13.17;31.90
13124;BME280;6627;50.920;12.050;2023-04-03T11:29:29;99215.41;;;13.74;31.65
13124;BME280;6627;50.920;12.050;2023-04-03T11:32:26;98786.41;;;11.97;31.48
13124;BME280;6627;50.920;12.050;2023-04-03T11:35:01;98849.97;;;11.96;33.10
13124;BME280;6627;50.920;12.050;2023-04-03T11:37:35;99324.50;;;14.00;32.91
13124;BME280;6627;50.920;12.050;2023-04-03T11:40:20;99170.75;;;13.53;31.98
13124;BME280;6627;50.920;12.050;2023-04-03T11:42:52;98861.19;;;12.25;31.95
13124;BME280;6627;50.920;12.050;2023-04-03T11:45:34;99325.78;;;14.25;32.41
13124;BME280;6627;50.920;12.050;2023-04-03T11:48:06;98981.59;;;13.02;30.88
13124;BME280;6627;50.920;12.050;2023-04-03T11:50:44;98506.91;;;11.03;31.13
13124;BME280;6627;50.920;12.050;2023-04-03T11:53:42;99024.59;;;13.22;30.67
13124;BME280;6627;50.920;12.050;2023-04-03T11:56:30;99038.28;;;13.17;31.42
13124;BME280;6627;50.920;12.050;2023-04-03T11:59:23;98954.97;;;12.68;32.04
13124;BME280;6627;50.920;12.050;2023-04-03T12:01:52;99216.56;;;13.82;32.28
13124;BME280;6627;50.920;12.050;2023-04-03T12:04:22;99290.03;;;14.18;32.75
13124;BME280;6627;50.920;12.050;2023-04-03T12:07:19;99180.59;;;13.94;31.97
13124;BME280;6627;50.920;12.050;2023-04-03T12:10:17;99068.31;;;13.57;31.08
13124;BME280;6627;50.920;12.050;2023-04-03T12:12:58;99011.94;;;13.49;30.10
13124;BME280;6627;50.920;12.050;2023-04-03T12:15:55;98641.59;;;11.93;30.96
13124;BME280;6627;50.920;12.050;2023-04-03T12:19:01;98729.41;;;11.97;31.91
13124;BME280;6627;50.920;12.050;2023-04-03T12:22:16;99089.47;;;13.60;31.72
13124;BME280;6627;50.920;12.050;2023-04-03T12:24:49;99257.16;;;14.46;31.18
13124;BME280;6627;50.920;12.050;2023-04-03T12:27:27;98834.34;;;12.24;33.56
13124;BME280;6627;50.920;12.050;2023-04-03T12:30:22;98920.81;;;12.75;32.37
13124;BME280;6627;50.920;12.050;2023-04-03T12:33:20;99015.06;;;13.33;31.59
13124;BME280;6627;50.920;12.050;2023-04-03T12:36:04;99039.41;;;13.38;31.55
13124;BME280;6627;50.920;12.050;2023-04-03T12:39:00;98902.75;;;13.02;30.55
13124;BME280;6627;50.920;12.050;2023-04-03T12:41:38;98734.41;;;12.34;30.97
13124;BME280;6627;50.920;12.050;2023-04-03T12:44:38;98869.28;;;12.70;31.63
13124;BME280;6627;50.920;12.050;2023-04-03T12:47:24;98935.63;;;12.69;32.66
13124;BME280;6627;50.920;12.050;2023-04-03T12:49:53;99022.97;;;13.21;32.05
13124;BME280;6627;50.920;12.050;2023-04-03T12:52:32;99028.88;;;13.46;31.04
13124;BME280;6627;50.920;12.050;2023-04-03T12:55:14;98908.28;;;12.97;30.83
13124;BME280;6627;50.920;12.050;2023-04-03T12:57:41;99097.66;;;14.00;29.98
13124;BME280;6627;50.920;12.050;2023-04-03T13:00:32;99044.56;;;13.80;29.88
13124;BME280;6627;50.920;12.050;2023-04-03T13:03:03;99155.47;;;14.36;29.71
13124;BME280;6627;50.920;12.050;2023-04-03T13:05:32;98998.69;;;13.56;30.69
13124;BME280;6627;50.920;12.050;2023-04-03T13:08:04;98891.34;;;13.00;31.37
13124;BME280;6627;50.920;12.050;2023-04-03T13:10:50;99030.59;;;13.64;31.12
13124;BME280;6627;50.920;12.050;2023-04-03T13:13:19;98754.53;;;12.33;31.60
13124;BME280;6627;50.920;12.050;2023-04-03T13:15:49;99011.88;;;13.80;29.80
13124;BME280;6627;50.920;12.050;2023-04-03T13:18:29;98830.00;;;13.16;29.36
13124;BME280;6627;50.920;12.050;2023-04-03T13:21:03;98752.72;;;12.60;30.54
13124;BME280;6627;50.920;12.050;2023-04-03T13:23:34;98849.03;;;12.76;31.63
13124;BME280;6627;50.920;12.050;2023-04-03T13:26:05;99043.69;;;13.62;31.80
13124;BME280;6627;50.920;12.050;2023-04-03T13:28:34;99061.63;;;13.63;32.35
13124;BME280;6627;50.920;12.050;2023-04-03T13:31:07;98951.16;;;13.22;32.12
13124;BME280;6627;50.920;12.050;2023-04-03T13:33:37;98776.34;;;12.51;31.95